createdAt,value
2018-02-17T00:00:59.453Z,55.78
2018-02-17T00:03:27.850Z,56.17
2018-02-17T00:05:56.228Z,55.68
2018-02-17T00:08:24.649Z,56.00
2018-02-17T00:10:53.016Z,56.25
2018-02-17T00:13:21.402Z,56.28
2018-02-17T00:15:49.882Z,55.89
2018-02-17T00:18:18.279Z,56.12
2018-02-17T00:20:47.043Z,55.91
2018-02-17T00:23:15.601Z,55.87
2018-02-17T00:25:44.000Z,55.67
2018-02-17T00:28:12.374Z,56.74
2018-02-17T00:30:40.741Z,56.36
2018-02-17T00:33:09.173Z,56.42
2018-02-17T00:35:37.568Z,56.16
2018-02-17T00:38:05.950Z,56.05
2018-02-17T00:40:34.727Z,56.74
2018-02-17T00:43:03.518Z,56.90
2018-02-17T00:45:31.888Z,56.69
2018-02-17T00:48:00.364Z,56.98
2018-02-17T00:50:28.730Z,57.09
2018-02-17T00:52:57.120Z,56.78
2018-02-17T00:55:25.491Z,56.88
2018-02-17T00:57:53.858Z,56.96
2018-02-17T01:00:22.293Z,57.36
2018-02-17T01:02:51.755Z,56.90
2018-02-17T01:05:20.140Z,57.55
2018-02-17T01:07:48.591Z,57.67
2018-02-17T01:10:17.083Z,57.69
2018-02-17T01:12:45.559Z,57.58
2018-02-17T01:15:14.037Z,58.11
2018-02-17T01:17:42.409Z,58.06
2018-02-17T01:20:10.824Z,57.90
2018-02-17T01:22:39.201Z,57.82
2018-02-17T01:25:07.650Z,57.68
2018-02-17T01:27:36.025Z,59.00
2018-02-17T01:30:04.386Z,58.68
2018-02-17T01:32:32.857Z,58.02
2018-02-17T01:35:01.635Z,58.19
2018-02-17T01:37:30.029Z,58.20
2018-02-17T01:39:58.780Z,58.41
2018-02-17T01:42:27.156Z,58.71
2018-02-17T01:44:55.541Z,57.90
2018-02-17T01:47:24.144Z,57.50
2018-02-17T01:49:52.581Z,57.34
2018-02-17T01:52:20.957Z,56.81
2018-02-17T01:54:49.332Z,56.13
2018-02-17T01:57:17.750Z,55.72
2018-02-17T01:59:46.132Z,55.53
2018-02-17T02:02:14.513Z,55.38
2018-02-17T02:04:42.881Z,55.20
2018-02-17T02:07:11.266Z,55.19
2018-02-17T02:09:39.657Z,55.30
2018-02-17T02:12:08.033Z,55.20
2018-02-17T02:14:36.391Z,54.87
2018-02-17T02:17:04.776Z,54.47
2018-02-17T02:19:33.167Z,54.12
2018-02-17T02:22:01.549Z,54.01
2018-02-17T02:24:29.923Z,53.65
2018-02-17T02:26:58.289Z,53.71
2018-02-17T02:29:26.753Z,53.17
2018-02-17T02:31:55.141Z,53.55
2018-02-17T02:34:24.543Z,52.99
2018-02-17T02:36:52.909Z,53.03
2018-02-17T02:39:21.275Z,53.14
2018-02-17T02:41:49.674Z,52.65
2018-02-17T02:44:18.045Z,53.16
2018-02-17T02:46:47.390Z,52.53
2018-02-17T02:49:15.749Z,52.48
2018-02-17T02:51:44.249Z,52.98
2018-02-17T02:54:12.620Z,52.96
2018-02-17T02:56:41.017Z,52.90
2018-02-17T02:59:09.373Z,52.87
2018-02-17T03:01:38.174Z,53.31
2018-02-17T03:04:06.627Z,53.41
2018-02-17T03:06:35.038Z,53.41
2018-02-17T03:09:03.399Z,53.41
2018-02-17T03:11:31.758Z,52.71
2018-02-17T03:14:00.117Z,53.09
2018-02-17T03:16:28.520Z,52.96
2018-02-17T03:18:56.884Z,52.72
2018-02-17T03:21:25.306Z,52.65
2018-02-17T03:23:53.676Z,52.62
2018-02-17T03:26:23.278Z,52.35
2018-02-17T03:28:51.648Z,52.15
2018-02-17T03:31:20.023Z,52.97
2018-02-17T03:33:48.393Z,52.73
2018-02-17T03:36:16.811Z,52.26
2018-02-17T03:38:46.177Z,52.34
2018-02-17T03:41:14.562Z,52.29
2018-02-17T03:43:42.968Z,52.54
2018-02-17T03:46:11.356Z,52.69
2018-02-17T03:48:39.715Z,52.04
2018-02-17T03:51:08.084Z,51.39
2018-02-17T03:53:36.482Z,51.40
2018-02-17T03:56:04.866Z,51.34
2018-02-17T03:58:33.291Z,51.78
2018-02-17T04:01:02.075Z,51.80
2018-02-17T04:03:30.471Z,51.54
2018-02-17T04:05:58.853Z,51.87
2018-02-17T04:08:27.350Z,51.35
2018-02-17T04:10:55.741Z,52.13
2018-02-17T04:13:24.127Z,52.16
2018-02-17T04:15:52.527Z,51.75
2018-02-17T04:18:21.332Z,51.75
2018-02-17T04:20:50.095Z,51.53
2018-02-17T04:23:18.449Z,51.42
2018-02-17T04:25:46.811Z,51.48
2018-02-17T04:28:15.162Z,52.51
2018-02-17T04:30:43.584Z,51.94
2018-02-17T04:33:11.938Z,52.09
2018-02-17T04:35:40.291Z,51.89
2018-02-17T04:38:09.036Z,52.23
2018-02-17T04:40:37.386Z,52.08
2018-02-17T04:43:09.042Z,52.75
2018-02-17T04:45:39.780Z,52.25
2018-02-17T04:48:13.932Z,52.22
2018-02-17T04:54:11.551Z,53.09
2018-02-17T04:56:45.402Z,52.68
2018-02-17T05:02:34.047Z,52.20
2018-02-17T05:05:08.874Z,52.10
2018-02-17T05:07:39.016Z,51.64
2018-02-17T05:10:10.364Z,51.31
2018-02-17T05:12:38.713Z,51.65
2018-02-17T05:18:34.343Z,51.60
2018-02-17T05:21:04.185Z,51.70
2018-02-17T05:23:32.582Z,51.19
2018-02-17T05:26:01.031Z,51.23
2018-02-17T05:28:47.028Z,50.80
2018-02-17T05:31:25.339Z,50.96
2018-02-17T05:34:01.943Z,50.95
2018-02-17T05:36:30.303Z,51.22
2018-02-17T05:39:00.835Z,50.84
2018-02-17T05:44:37.328Z,51.77
2018-02-17T05:47:07.910Z,51.19
2018-02-17T05:49:37.546Z,51.20
2018-02-17T05:52:05.915Z,51.35
2018-02-17T05:54:34.278Z,51.00
2018-02-17T05:57:02.700Z,50.91
2018-02-17T05:59:31.072Z,51.43
2018-02-17T06:01:59.455Z,51.39
2018-02-17T06:04:27.804Z,51.33
2018-02-17T06:06:56.244Z,50.79
2018-02-17T06:09:25.468Z,51.42
2018-02-17T06:11:53.828Z,51.20
2018-02-17T06:14:22.568Z,50.98
2018-02-17T06:16:50.917Z,50.98
2018-02-17T06:19:19.332Z,51.47
2018-02-17T06:21:47.692Z,51.97
2018-02-17T06:24:16.046Z,51.44
2018-02-17T06:26:44.512Z,51.51
2018-02-17T06:29:13.256Z,51.56
2018-02-17T06:31:41.616Z,51.41
2018-02-17T06:34:09.970Z,51.02
2018-02-17T06:36:38.342Z,51.38
2018-02-17T06:39:07.184Z,51.13
2018-02-17T06:41:35.560Z,50.81
2018-02-17T06:44:04.059Z,50.84
2018-02-17T06:46:32.442Z,50.52
2018-02-17T06:49:00.797Z,50.74
2018-02-17T06:51:29.178Z,50.44
2018-02-17T06:53:57.533Z,51.43
2018-02-17T06:56:25.885Z,50.75
2018-02-17T06:58:54.668Z,50.80
2018-02-17T07:01:23.005Z,50.42
2018-02-17T07:03:51.376Z,50.17
2018-02-17T07:06:19.739Z,50.17
2018-02-17T07:08:48.097Z,50.43
2018-02-17T07:11:16.480Z,50.04
2018-02-17T07:13:44.836Z,50.02
2018-02-17T07:16:13.672Z,49.50
2018-02-17T07:18:42.023Z,49.93
2018-02-17T07:21:10.380Z,49.46
2018-02-17T07:23:39.228Z,49.32
2018-02-17T07:26:07.704Z,49.54
2018-02-17T07:28:36.068Z,49.18
2018-02-17T07:31:04.568Z,48.77
2018-02-17T07:33:32.949Z,48.59
2018-02-17T07:36:01.302Z,49.87
2018-02-17T07:38:29.668Z,49.26
2018-02-17T07:40:58.082Z,49.19
2018-02-17T07:43:26.437Z,48.97
2018-02-17T07:45:54.793Z,48.57
2018-02-17T07:48:23.548Z,48.68
2018-02-17T07:50:51.995Z,48.39
2018-02-17T07:53:20.361Z,48.24
2018-02-17T07:55:48.756Z,48.13
2018-02-17T07:58:17.222Z,48.36
2018-02-17T08:00:45.628Z,48.18
2018-02-17T08:03:13.997Z,47.90
2018-02-17T08:05:42.367Z,47.83
2018-02-17T08:08:10.753Z,47.46
2018-02-17T08:10:39.237Z,47.84
2018-02-17T08:13:07.592Z,48.55
2018-02-17T08:15:36.000Z,48.66
2018-02-17T08:18:04.388Z,49.25
2018-02-17T08:20:32.776Z,48.66
2018-02-17T08:23:01.143Z,47.40
2018-02-17T08:25:29.519Z,47.67
2018-02-17T08:27:57.868Z,46.86
2018-02-17T08:30:26.237Z,46.49
2018-02-17T08:32:54.589Z,46.23
2018-02-17T08:35:23.116Z,46.60
2018-02-17T08:37:51.503Z,46.57
2018-02-17T08:40:19.893Z,45.98
2018-02-17T08:42:48.253Z,45.69
2018-02-17T08:45:16.652Z,45.57
2018-02-17T08:47:45.020Z,45.37
2018-02-17T08:50:13.412Z,44.81
2018-02-17T08:52:41.760Z,45.00
2018-02-17T08:55:10.112Z,44.77
2018-02-17T08:57:38.865Z,44.65
2018-02-17T09:00:07.222Z,44.37
2018-02-17T09:02:35.581Z,44.33
2018-02-17T09:05:03.941Z,44.16
2018-02-17T09:07:32.311Z,44.45
2018-02-17T09:10:01.059Z,44.15
2018-02-17T09:12:29.423Z,44.29
2018-02-17T09:14:57.793Z,43.74
2018-02-17T09:17:26.161Z,43.29
2018-02-17T09:19:54.565Z,43.31
2018-02-17T09:22:23.967Z,43.38
2018-02-17T09:24:52.321Z,44.37
2018-02-17T09:27:20.722Z,45.01
2018-02-17T09:29:49.080Z,43.92
2018-02-17T09:32:17.450Z,43.36
2018-02-17T09:34:45.861Z,43.08
2018-02-17T09:37:14.228Z,43.54
2018-02-17T09:39:42.642Z,43.35
2018-02-17T09:42:11.106Z,43.05
2018-02-17T09:44:39.480Z,42.52
2018-02-17T09:47:07.880Z,42.67
2018-02-17T09:49:36.364Z,42.30
2018-02-17T09:52:04.744Z,43.05
2018-02-17T09:54:33.195Z,43.96
2018-02-17T09:57:01.568Z,42.68
2018-02-17T09:59:29.943Z,41.77
2018-02-17T10:01:58.321Z,42.01
2018-02-17T10:04:26.683Z,41.81
2018-02-17T10:06:55.052Z,41.40
2018-02-17T10:09:23.427Z,41.31
2018-02-17T10:11:51.805Z,40.63
2018-02-17T10:14:20.666Z,40.38
2018-02-17T10:16:49.137Z,40.02
2018-02-17T10:19:17.492Z,40.10
2018-02-17T10:21:45.856Z,40.79
2018-02-17T10:24:14.224Z,40.80
2018-02-17T10:26:42.606Z,39.95
2018-02-17T10:29:10.966Z,39.48
2018-02-17T10:31:39.749Z,39.92
2018-02-17T10:34:08.598Z,39.92
2018-02-17T10:36:36.964Z,39.70
2018-02-17T10:39:05.350Z,39.92
2018-02-17T10:41:33.712Z,41.02
2018-02-17T10:44:02.073Z,39.52
2018-02-17T10:46:30.504Z,39.36
2018-02-17T10:48:58.992Z,38.47
2018-02-17T10:51:27.528Z,38.54
2018-02-17T10:53:55.896Z,38.57
2018-02-17T10:56:24.260Z,38.86
2018-02-17T10:58:53.106Z,38.52
2018-02-17T11:01:21.501Z,37.69
2018-02-17T11:03:49.870Z,37.95
2018-02-17T11:06:18.277Z,39.19
2018-02-17T11:08:46.616Z,38.56
2018-02-17T11:11:14.992Z,38.73
2018-02-17T11:13:43.359Z,39.62
2018-02-17T11:16:11.728Z,39.70
2018-02-17T11:18:40.408Z,38.65
2018-02-17T11:21:08.776Z,38.27
2018-02-17T11:23:37.204Z,37.10
2018-02-17T11:26:05.564Z,37.02
2018-02-17T11:28:33.970Z,37.65
2018-02-17T11:31:02.379Z,36.75
2018-02-17T11:33:31.177Z,36.81
2018-02-17T11:36:00.008Z,36.84
2018-02-17T11:38:28.379Z,37.35
2018-02-17T11:40:56.740Z,37.79
2018-02-17T11:43:25.142Z,38.96
2018-02-17T11:45:53.505Z,39.57
2018-02-17T11:48:21.899Z,39.47
2018-02-17T11:50:50.256Z,38.97
2018-02-17T11:53:18.674Z,38.67
2018-02-17T11:55:47.052Z,38.29
2018-02-17T11:58:15.407Z,37.65
2018-02-17T12:00:43.778Z,37.27
2018-02-17T12:03:12.179Z,37.93
2018-02-17T12:05:40.547Z,37.85
2018-02-17T12:08:08.899Z,37.83
2018-02-17T12:10:37.318Z,37.28
2018-02-17T12:13:05.674Z,37.49
2018-02-17T12:15:34.045Z,37.88
2018-02-17T12:18:02.444Z,37.21
2018-02-17T12:20:30.840Z,37.87
2018-02-17T12:22:59.197Z,39.02
2018-02-17T12:25:27.586Z,39.01
2018-02-17T12:27:55.968Z,39.04
2018-02-17T12:30:24.332Z,37.87
2018-02-17T12:32:52.684Z,37.63
2018-02-17T12:35:21.105Z,38.40
2018-02-17T12:37:49.468Z,38.19
2018-02-17T12:40:17.827Z,39.11
2018-02-17T12:42:46.192Z,39.24
2018-02-17T12:45:14.958Z,38.98
2018-02-17T12:47:43.380Z,38.64
2018-02-17T12:50:11.741Z,37.51
2018-02-17T12:52:40.101Z,38.11
2018-02-17T12:55:08.855Z,37.24
2018-02-17T12:57:37.235Z,37.06
2018-02-17T13:00:05.604Z,37.41
2018-02-17T13:02:34.036Z,36.88
2018-02-17T13:05:02.889Z,37.28
2018-02-17T13:07:31.257Z,37.79
2018-02-17T13:09:59.608Z,37.77
2018-02-17T13:12:27.960Z,37.66
2018-02-17T13:14:56.796Z,37.70
2018-02-17T13:17:25.153Z,37.61
2018-02-17T13:19:53.596Z,38.16
2018-02-17T13:22:21.941Z,39.94
2018-02-17T13:24:50.300Z,38.43
2018-02-17T13:27:18.660Z,38.75
2018-02-17T13:29:47.011Z,39.02
2018-02-17T13:32:15.873Z,40.19
2018-02-17T13:34:44.225Z,39.54
2018-02-17T13:37:12.637Z,39.45
2018-02-17T13:39:41.105Z,39.55
2018-02-17T13:42:09.484Z,40.82
2018-02-17T13:44:37.856Z,40.76
2018-02-17T13:47:06.228Z,40.07
2018-02-17T13:49:34.589Z,41.19
2018-02-17T13:52:02.955Z,40.63
2018-02-17T13:54:31.323Z,41.49
2018-02-17T13:57:00.070Z,41.05
2018-02-17T13:59:29.300Z,42.43
2018-02-17T14:01:58.056Z,42.01
2018-02-17T14:04:26.421Z,41.31
2018-02-17T14:06:54.812Z,41.26
2018-02-17T14:09:23.203Z,40.55
2018-02-17T14:11:51.665Z,41.27
2018-02-17T14:14:20.031Z,41.62
2018-02-17T14:16:48.392Z,42.58
2018-02-17T14:19:16.804Z,42.22
2018-02-17T14:21:45.167Z,40.87
2018-02-17T14:24:13.558Z,41.68
2018-02-17T14:26:41.930Z,41.90
2018-02-17T14:29:10.292Z,41.69
2018-02-17T14:31:38.657Z,41.62
2018-02-17T14:34:07.076Z,43.80
2018-02-17T14:36:35.448Z,44.26
2018-02-17T14:39:03.805Z,43.02
2018-02-17T14:41:32.179Z,43.99
2018-02-17T14:44:00.539Z,42.96
2018-02-17T14:46:29.293Z,43.22
2018-02-17T14:48:57.647Z,43.27
2018-02-17T14:51:26.330Z,45.21
2018-02-17T14:53:54.688Z,45.99
2018-02-17T14:56:23.108Z,46.84
2018-02-17T14:58:51.460Z,45.50
2018-02-17T15:01:19.819Z,44.74
2018-02-17T15:03:48.314Z,43.64
2018-02-17T15:06:16.676Z,43.72
2018-02-17T15:08:45.024Z,45.53
2018-02-17T15:11:13.397Z,45.19
2018-02-17T15:13:41.855Z,44.11
2018-02-17T15:16:10.236Z,43.29
2018-02-17T15:18:38.642Z,42.71
2018-02-17T15:21:07.003Z,43.30
2018-02-17T15:23:35.352Z,43.73
2018-02-17T15:26:03.753Z,45.87
2018-02-17T15:28:32.133Z,46.04
2018-02-17T15:31:00.504Z,46.33
2018-02-17T15:33:28.914Z,44.65
2018-02-17T15:35:57.372Z,45.11
2018-02-17T15:38:25.827Z,45.05
2018-02-17T15:40:54.188Z,45.47
2018-02-17T15:43:22.600Z,45.53
2018-02-17T15:45:51.033Z,46.55
2018-02-17T15:48:19.785Z,45.75
2018-02-17T15:50:48.151Z,45.01
2018-02-17T15:53:16.704Z,45.30
2018-02-17T15:55:45.072Z,44.63
2018-02-17T15:58:13.514Z,45.23
2018-02-17T16:00:41.992Z,45.55
2018-02-17T16:03:10.470Z,45.61
2018-02-17T16:05:38.832Z,47.09
2018-02-17T16:08:07.208Z,47.37
2018-02-17T16:10:35.564Z,47.28
2018-02-17T16:13:03.922Z,48.70
2018-02-17T16:15:32.687Z,49.65
2018-02-17T16:18:01.039Z,49.19
2018-02-17T16:20:29.399Z,48.37
2018-02-17T16:22:57.745Z,49.00
2018-02-17T16:25:26.497Z,48.75
2018-02-17T16:27:54.869Z,48.61
2018-02-17T16:30:23.239Z,49.28
2018-02-17T16:32:51.589Z,49.42
2018-02-17T16:35:19.948Z,49.31
2018-02-17T16:37:48.715Z,51.99
2018-02-17T16:40:17.160Z,51.67
2018-02-17T16:42:45.509Z,52.30
2018-02-17T16:45:13.881Z,52.56
2018-02-17T16:47:42.250Z,51.82
2018-02-17T16:50:11.007Z,51.45
2018-02-17T16:52:39.362Z,51.66
2018-02-17T16:55:07.766Z,50.91
2018-02-17T16:57:36.116Z,51.32
2018-02-17T17:00:04.576Z,50.86
2018-02-17T17:02:32.949Z,50.17
2018-02-17T17:05:01.312Z,50.20
2018-02-17T17:07:30.056Z,50.92
2018-02-17T17:09:58.420Z,51.51
2018-02-17T17:12:26.809Z,52.45
2018-02-17T17:14:55.292Z,51.83
2018-02-17T17:17:23.773Z,50.99
2018-02-17T17:19:52.158Z,50.75
2018-02-17T17:22:20.519Z,50.06
2018-02-17T17:24:48.914Z,50.38
2018-02-17T17:27:17.280Z,51.79
2018-02-17T17:29:45.664Z,52.24
2018-02-17T17:32:14.168Z,52.78
2018-02-17T17:34:42.533Z,51.00
2018-02-17T17:37:10.908Z,50.22
2018-02-17T17:39:39.275Z,50.92
2018-02-17T17:42:07.652Z,51.50
2018-02-17T17:44:36.018Z,50.95
2018-02-17T17:47:04.385Z,50.30
2018-02-17T17:49:32.746Z,50.97
2018-02-17T17:52:01.576Z,51.02
2018-02-17T17:54:29.957Z,51.34
2018-02-17T17:56:58.321Z,50.63
2018-02-17T17:59:26.748Z,50.36
2018-02-17T18:01:55.109Z,51.28
2018-02-17T18:04:23.489Z,50.38
2018-02-17T18:06:51.862Z,51.16
2018-02-17T18:09:20.237Z,52.03
2018-02-17T18:11:48.616Z,53.36
2018-02-17T18:14:16.993Z,54.99
2018-02-17T18:16:45.370Z,53.68
2018-02-17T18:19:13.750Z,54.40
2018-02-17T18:22:51.909Z,54.02
2018-02-17T18:25:20.675Z,53.39
2018-02-17T18:27:49.100Z,52.54
2018-02-17T18:30:17.512Z,52.62
2018-02-17T18:32:45.865Z,51.15
2018-02-17T18:35:14.228Z,51.94
2018-02-17T18:37:42.661Z,52.59
2018-02-17T18:40:11.022Z,51.75
2018-02-17T18:42:39.385Z,51.91
2018-02-17T18:45:07.810Z,51.41
2018-02-17T18:47:36.155Z,52.22
2018-02-17T18:50:04.525Z,52.39
2018-02-17T18:52:32.870Z,52.61
2018-02-17T18:55:01.625Z,52.21
2018-02-17T18:57:29.992Z,53.45
2018-02-17T18:59:58.348Z,53.64
2018-02-17T19:02:26.700Z,54.14
2018-02-17T19:04:55.115Z,55.15
2018-02-17T19:07:23.858Z,54.80
2018-02-17T19:09:52.609Z,55.61
2018-02-17T19:12:20.971Z,54.00
2018-02-17T19:14:49.331Z,53.60
2018-02-17T19:17:17.690Z,55.42
2018-02-17T19:19:46.105Z,55.56
2018-02-17T19:22:14.488Z,55.02
2018-02-17T19:24:42.875Z,55.54
2018-02-17T19:27:11.517Z,54.22
2018-02-17T19:29:39.935Z,53.27
2018-02-17T19:32:08.316Z,53.25
2018-02-17T19:34:36.726Z,52.68
2018-02-17T19:37:05.068Z,53.27
2018-02-17T19:39:33.542Z,53.01
2018-02-17T19:42:01.931Z,52.89
2018-02-17T19:44:30.301Z,52.52
2018-02-17T19:46:58.700Z,53.41
2018-02-17T19:49:27.065Z,52.58
2018-02-17T19:51:55.440Z,53.70
2018-02-17T19:54:23.900Z,53.04
2018-02-17T19:56:52.256Z,53.65
2018-02-17T19:59:21.036Z,53.41
2018-02-17T20:01:49.817Z,52.29
2018-02-17T20:04:18.676Z,51.66
2018-02-17T20:06:47.047Z,51.30
2018-02-17T20:09:15.444Z,51.39
2018-02-17T20:11:43.813Z,51.11
2018-02-17T20:14:12.188Z,50.63
2018-02-17T20:16:40.560Z,50.31
2018-02-17T20:19:08.909Z,50.47
2018-02-17T20:21:37.268Z,50.13
2018-02-17T20:24:06.105Z,50.16
2018-02-17T20:26:34.483Z,49.11
2018-02-17T20:29:02.847Z,48.63
2018-02-17T20:31:31.224Z,47.89
2018-02-17T20:33:59.604Z,46.27
2018-02-17T20:36:27.967Z,46.49
2018-02-17T20:38:56.391Z,45.97
2018-02-17T20:41:24.819Z,46.53
2018-02-17T20:43:53.571Z,46.46
2018-02-17T20:46:21.935Z,46.24
2018-02-17T20:48:50.305Z,46.16
2018-02-17T20:51:18.660Z,47.47
2018-02-17T20:53:47.080Z,48.78
2018-02-17T20:56:15.449Z,48.89
2018-02-17T20:58:43.795Z,48.87
2018-02-17T21:01:12.163Z,49.01
2018-02-17T21:03:40.613Z,50.15
2018-02-17T21:06:09.472Z,51.03
2018-02-17T21:08:37.812Z,51.71
2018-02-17T21:11:06.173Z,53.59
2018-02-17T21:13:35.007Z,54.19
2018-02-17T21:16:03.400Z,52.85
2018-02-17T21:18:31.744Z,52.01
2018-02-17T21:21:00.095Z,53.44
2018-02-17T21:23:28.847Z,52.68
2018-02-17T21:25:57.206Z,52.16
2018-02-17T21:28:25.601Z,52.13
2018-02-17T21:30:54.014Z,53.44
2018-02-17T21:33:22.450Z,53.44
2018-02-17T21:35:50.808Z,53.12
2018-02-17T21:38:19.212Z,52.12
2018-02-17T21:40:47.593Z,51.70
2018-02-17T21:43:15.945Z,51.26
2018-02-17T21:45:44.295Z,51.19
2018-02-17T21:48:13.067Z,50.84
2018-02-17T21:50:41.529Z,50.69
2018-02-17T21:53:09.884Z,50.34
2018-02-17T21:58:16.616Z,51.17
2018-02-17T22:00:44.986Z,50.98
2018-02-17T22:03:13.390Z,51.33
2018-02-17T22:05:41.719Z,51.16
2018-02-17T22:08:10.065Z,51.30
2018-02-17T22:10:38.437Z,51.26
2018-02-17T22:13:07.199Z,51.42
2018-02-17T22:15:35.580Z,51.45
2018-02-17T22:18:03.941Z,52.68
2018-02-17T22:20:32.968Z,53.93
2018-02-17T22:23:02.312Z,53.56
2018-02-17T22:25:30.701Z,53.14
2018-02-17T22:27:59.068Z,52.65
2018-02-17T22:30:27.448Z,54.26
2018-02-17T22:32:55.822Z,53.70
2018-02-17T22:35:24.209Z,53.20
2018-02-17T22:37:52.563Z,53.11
2018-02-17T22:40:20.941Z,52.85
2018-02-17T22:42:49.324Z,53.07
2018-02-17T22:45:17.744Z,53.07
2018-02-17T22:47:46.263Z,52.68
2018-02-17T22:50:15.028Z,53.33
2018-02-17T22:52:43.444Z,52.35
2018-02-17T22:55:11.826Z,53.32
2018-02-17T22:57:40.224Z,53.08
2018-02-17T23:00:08.599Z,52.36
2018-02-17T23:02:36.973Z,52.53
2018-02-17T23:05:05.331Z,52.77
2018-02-17T23:07:34.119Z,52.35
2018-02-17T23:10:02.517Z,52.19
2018-02-17T23:12:30.888Z,52.02
2018-02-17T23:14:59.379Z,51.77
2018-02-17T23:17:27.771Z,51.70
2018-02-17T23:19:56.711Z,52.20
2018-02-17T23:22:25.493Z,52.26
2018-02-17T23:24:53.859Z,51.98
2018-02-17T23:27:22.228Z,51.66
2018-02-17T23:29:50.600Z,51.98
2018-02-17T23:32:18.975Z,51.21
2018-02-17T23:34:47.334Z,51.53
2018-02-17T23:37:15.702Z,51.26
2018-02-17T23:39:44.062Z,51.00
2018-02-17T23:42:12.852Z,51.14
2018-02-17T23:44:41.232Z,51.22
2018-02-17T23:47:10.077Z,51.29
2018-02-17T23:49:38.446Z,50.79
2018-02-17T23:52:06.821Z,51.61
2018-02-17T23:54:35.171Z,52.03
2018-02-17T23:57:03.561Z,51.16
2018-02-17T23:59:31.998Z,51.19
